sensor_id;sensor_type;location;lat;lon;timestamp;P1;durP1;ratioP1;P2;durP2;ratioP2
72109;SDS011;59983;52.010;5.420;2023-08-20T00:00:31;9.27;;;6.88;;
72109;SDS011;59983;52.010;5.420;2023-08-20T00:02:58;12.32;;;7.50;;
72109;SDS011;59983;52.010;5.420;2023-08-20T00:05:30;8.25;;;7.00;;
72109;SDS011;59983;52.010;5.420;2023-08-20T00:07:57;11.27;;;7.00;;
72109;SDS011;59983;52.010;5.420;2023-08-20T00:10:24;10.25;;;7.63;;
72109;SDS011;59983;52.010;5.420;2023-08-20T00:12:50;10.10;;;7.22;;
72109;SDS011;59983;52.010;5.420;2023-08-20T00:15:17;10.15;;;6.55;;
72109;SDS011;59983;52.010;5.420;2023-08-20T00:17:45;10.68;;;7.55;;
72109;SDS011;59983;52.010;5.420;2023-08-20T00:20:13;8.63;;;6.90;;
72109;SDS011;59983;52.010;5.420;2023-08-20T00:22:40;7.90;;;6.25;;
72109;SDS011;59983;52.010;5.420;2023-08-20T00:25:08;10.45;;;6.90;;
72109;SDS011;59983;52.010;5.420;2023-08-20T00:27:35;10.13;;;6.63;;
72109;SDS011;59983;52.010;5.420;2023-08-20T00:30:03;8.60;;;7.22;;
72109;SDS011;59983;52.010;5.420;2023-08-20T00:32:30;7.63;;;6.93;;
72109;SDS011;59983;52.010;5.420;2023-08-20T00:34:56;7.97;;;7.03;;
72109;SDS011;59983;52.010;5.420;2023-08-20T00:37:23;8.27;;;6.80;;
72109;SDS011;59983;52.010;5.420;2023-08-20T00:39:49;12.55;;;7.97;;
72109;SDS011;59983;52.010;5.420;2023-08-20T00:42:16;8.57;;;6.65;;
72109;SDS011;59983;52.010;5.420;2023-08-20T00:44:43;9.30;;;6.83;;
72109;SDS011;59983;52.010;5.420;2023-08-20T00:47:12;8.10;;;6.65;;
72109;SDS011;59983;52.010;5.420;2023-08-20T00:49:39;10.38;;;6.95;;
72109;SDS011;59983;52.010;5.420;2023-08-20T00:52:11;10.65;;;7.40;;
72109;SDS011;59983;52.010;5.420;2023-08-20T00:54:40;10.25;;;7.30;;
72109;SDS011;59983;52.010;5.420;2023-08-20T00:57:07;8.67;;;7.63;;
72109;SDS011;59983;52.010;5.420;2023-08-20T00:59:34;13.25;;;7.43;;
72109;SDS011;59983;52.010;5.420;2023-08-20T01:02:01;12.63;;;7.60;;
72109;SDS011;59983;52.010;5.420;2023-08-20T01:04:29;10.23;;;7.43;;
72109;SDS011;59983;52.010;5.420;2023-08-20T01:12:20;12.00;;;7.72;;
72109;SDS011;59983;52.010;5.420;2023-08-20T01:14:48;9.80;;;8.02;;
72109;SDS011;59983;52.010;5.420;2023-08-20T01:17:15;11.50;;;7.50;;
72109;SDS011;59983;52.010;5.420;2023-08-20T01:19:42;7.80;;;7.00;;
72109;SDS011;59983;52.010;5.420;2023-08-20T01:27:15;9.82;;;7.55;;
72109;SDS011;59983;52.010;5.420;2023-08-20T01:29:53;11.40;;;8.43;;
72109;SDS011;59983;52.010;5.420;2023-08-20T01:32:21;8.85;;;7.85;;
72109;SDS011;59983;52.010;5.420;2023-08-20T01:34:49;8.60;;;7.47;;
72109;SDS011;59983;52.010;5.420;2023-08-20T01:37:15;10.73;;;7.80;;
72109;SDS011;59983;52.010;5.420;2023-08-20T01:39:43;10.23;;;8.20;;
72109;SDS011;59983;52.010;5.420;2023-08-20T01:42:09;9.38;;;8.43;;
72109;SDS011;59983;52.010;5.420;2023-08-20T01:44:36;9.23;;;7.90;;
72109;SDS011;59983;52.010;5.420;2023-08-20T01:47:02;10.03;;;8.07;;
72109;SDS011;59983;52.010;5.420;2023-08-20T01:49:29;11.27;;;9.20;;
72109;SDS011;59983;52.010;5.420;2023-08-20T01:51:55;12.63;;;8.30;;
72109;SDS011;59983;52.010;5.420;2023-08-20T01:54:22;9.77;;;8.02;;
72109;SDS011;59983;52.010;5.420;2023-08-20T01:56:48;9.07;;;8.05;;
72109;SDS011;59983;52.010;5.420;2023-08-20T01:59:15;11.77;;;8.80;;
72109;SDS011;59983;52.010;5.420;2023-08-20T02:01:41;10.65;;;7.80;;
72109;SDS011;59983;52.010;5.420;2023-08-20T02:04:08;10.85;;;8.45;;
72109;SDS011;59983;52.010;5.420;2023-08-20T02:06:35;15.27;;;9.40;;
72109;SDS011;59983;52.010;5.420;2023-08-20T02:09:01;16.02;;;8.90;;
72109;SDS011;59983;52.010;5.420;2023-08-20T02:11:29;12.70;;;8.50;;
72109;SDS011;59983;52.010;5.420;2023-08-20T02:13:55;13.20;;;8.30;;
72109;SDS011;59983;52.010;5.420;2023-08-20T02:16:22;11.18;;;7.63;;
72109;SDS011;59983;52.010;5.420;2023-08-20T02:18:49;9.85;;;7.50;;
72109;SDS011;59983;52.010;5.420;2023-08-20T02:21:15;12.93;;;8.60;;
72109;SDS011;59983;52.010;5.420;2023-08-20T02:23:42;14.33;;;8.10;;
72109;SDS011;59983;52.010;5.420;2023-08-20T02:26:09;13.00;;;8.45;;
72109;SDS011;59983;52.010;5.420;2023-08-20T02:28:36;11.00;;;8.68;;
72109;SDS011;59983;52.010;5.420;2023-08-20T02:31:05;9.38;;;8.45;;
72109;SDS011;59983;52.010;5.420;2023-08-20T02:33:32;10.00;;;8.52;;
72109;SDS011;59983;52.010;5.420;2023-08-20T02:36:04;8.73;;;7.53;;
72109;SDS011;59983;52.010;5.420;2023-08-20T02:38:31;9.95;;;7.65;;
72109;SDS011;59983;52.010;5.420;2023-08-20T02:40:57;12.05;;;7.35;;
72109;SDS011;59983;52.010;5.420;2023-08-20T02:43:24;9.63;;;8.05;;
72109;SDS011;59983;52.010;5.420;2023-08-20T02:45:50;9.85;;;7.55;;
72109;SDS011;59983;52.010;5.420;2023-08-20T02:48:17;8.10;;;7.33;;
72109;SDS011;59983;52.010;5.420;2023-08-20T02:50:44;8.43;;;7.53;;
72109;SDS011;59983;52.010;5.420;2023-08-20T02:53:11;10.45;;;8.00;;
72109;SDS011;59983;52.010;5.420;2023-08-20T02:55:37;8.85;;;7.10;;
72109;SDS011;59983;52.010;5.420;2023-08-20T02:58:04;10.52;;;7.82;;
72109;SDS011;59983;52.010;5.420;2023-08-20T03:00:34;10.60;;;7.87;;
72109;SDS011;59983;52.010;5.420;2023-08-20T03:03:00;9.48;;;7.32;;
72109;SDS011;59983;52.010;5.420;2023-08-20T03:05:30;12.65;;;8.93;;
72109;SDS011;59983;52.010;5.420;2023-08-20T03:07:57;12.43;;;9.65;;
72109;SDS011;59983;52.010;5.420;2023-08-20T03:10:24;9.98;;;8.98;;
72109;SDS011;59983;52.010;5.420;2023-08-20T03:12:51;10.30;;;8.17;;
72109;SDS011;59983;52.010;5.420;2023-08-20T03:15:18;9.00;;;6.75;;
72109;SDS011;59983;52.010;5.420;2023-08-20T03:17:45;6.85;;;6.18;;
72109;SDS011;59983;52.010;5.420;2023-08-20T03:20:11;6.43;;;6.00;;
72109;SDS011;59983;52.010;5.420;2023-08-20T03:22:38;6.45;;;6.05;;
72109;SDS011;59983;52.010;5.420;2023-08-20T03:25:05;6.30;;;5.90;;
72109;SDS011;59983;52.010;5.420;2023-08-20T03:27:32;7.03;;;6.30;;
72109;SDS011;59983;52.010;5.420;2023-08-20T03:29:59;6.93;;;6.40;;
72109;SDS011;59983;52.010;5.420;2023-08-20T03:32:26;7.05;;;6.45;;
72109;SDS011;59983;52.010;5.420;2023-08-20T03:34:53;8.75;;;7.72;;
72109;SDS011;59983;52.010;5.420;2023-08-20T03:37:20;6.63;;;6.13;;
72109;SDS011;59983;52.010;5.420;2023-08-20T03:39:48;6.78;;;5.85;;
72109;SDS011;59983;52.010;5.420;2023-08-20T03:42:14;7.07;;;6.55;;
72109;SDS011;59983;52.010;5.420;2023-08-20T03:44:41;8.10;;;7.13;;
72109;SDS011;59983;52.010;5.420;2023-08-20T03:47:07;7.20;;;6.57;;
72109;SDS011;59983;52.010;5.420;2023-08-20T03:49:35;7.70;;;7.00;;
72109;SDS011;59983;52.010;5.420;2023-08-20T03:52:02;8.32;;;7.50;;
72109;SDS011;59983;52.010;5.420;2023-08-20T03:54:29;7.57;;;6.88;;
72109;SDS011;59983;52.010;5.420;2023-08-20T03:56:56;6.95;;;6.32;;
72109;SDS011;59983;52.010;5.420;2023-08-20T03:59:22;8.13;;;7.32;;
72109;SDS011;59983;52.010;5.420;2023-08-20T04:01:49;8.00;;;7.20;;
72109;SDS011;59983;52.010;5.420;2023-08-20T04:04:16;10.75;;;8.25;;
72109;SDS011;59983;52.010;5.420;2023-08-20T04:06:42;7.97;;;7.22;;
72109;SDS011;59983;52.010;5.420;2023-08-20T04:09:09;10.30;;;7.43;;
72109;SDS011;59983;52.010;5.420;2023-08-20T04:11:35;8.45;;;7.30;;
72109;SDS011;59983;52.010;5.420;2023-08-20T04:14:02;9.67;;;6.57;;
72109;SDS011;59983;52.010;5.420;2023-08-20T04:16:29;9.85;;;7.82;;
72109;SDS011;59983;52.010;5.420;2023-08-20T04:18:56;9.50;;;8.10;;
72109;SDS011;59983;52.010;5.420;2023-08-20T04:21:22;10.15;;;7.65;;
72109;SDS011;59983;52.010;5.420;2023-08-20T04:23:49;9.55;;;8.68;;
72109;SDS011;59983;52.010;5.420;2023-08-20T04:26:15;10.03;;;8.50;;
72109;SDS011;59983;52.010;5.420;2023-08-20T04:28:42;9.43;;;7.28;;
72109;SDS011;59983;52.010;5.420;2023-08-20T04:31:08;8.40;;;6.65;;
72109;SDS011;59983;52.010;5.420;2023-08-20T04:33:35;9.38;;;7.45;;
72109;SDS011;59983;52.010;5.420;2023-08-20T04:36:02;7.40;;;6.75;;
72109;SDS011;59983;52.010;5.420;2023-08-20T04:38:28;7.07;;;6.50;;
72109;SDS011;59983;52.010;5.420;2023-08-20T04:40:55;8.23;;;7.25;;
72109;SDS011;59983;52.010;5.420;2023-08-20T04:43:21;8.93;;;7.63;;
72109;SDS011;59983;52.010;5.420;2023-08-20T04:45:49;7.05;;;6.35;;
72109;SDS011;59983;52.010;5.420;2023-08-20T04:48:15;6.78;;;6.28;;
72109;SDS011;59983;52.010;5.420;2023-08-20T04:50:42;8.07;;;5.70;;
72109;SDS011;59983;52.010;5.420;2023-08-20T04:53:08;7.18;;;6.55;;
72109;SDS011;59983;52.010;5.420;2023-08-20T04:55:35;7.47;;;6.78;;
72109;SDS011;59983;52.010;5.420;2023-08-20T04:58:01;11.70;;;7.15;;
72109;SDS011;59983;52.010;5.420;2023-08-20T05:00:28;7.05;;;6.43;;
72109;SDS011;59983;52.010;5.420;2023-08-20T05:02:55;8.57;;;6.67;;
72109;SDS011;59983;52.010;5.420;2023-08-20T05:05:22;6.18;;;5.68;;
72109;SDS011;59983;52.010;5.420;2023-08-20T05:07:48;7.88;;;6.70;;
72109;SDS011;59983;52.010;5.420;2023-08-20T05:10:15;7.43;;;5.85;;
72109;SDS011;59983;52.010;5.420;2023-08-20T05:12:42;6.57;;;5.97;;
72109;SDS011;59983;52.010;5.420;2023-08-20T05:15:08;6.40;;;5.73;;
72109;SDS011;59983;52.010;5.420;2023-08-20T05:17:35;6.95;;;6.35;;
72109;SDS011;59983;52.010;5.420;2023-08-20T05:20:02;6.82;;;6.18;;
72109;SDS011;59983;52.010;5.420;2023-08-20T05:22:29;7.10;;;6.50;;
72109;SDS011;59983;52.010;5.420;2023-08-20T05:24:56;6.13;;;5.68;;
72109;SDS011;59983;52.010;5.420;2023-08-20T05:27:23;7.20;;;6.47;;
72109;SDS011;59983;52.010;5.420;2023-08-20T05:29:49;6.13;;;5.63;;
72109;SDS011;59983;52.010;5.420;2023-08-20T05:32:16;7.15;;;5.82;;
72109;SDS011;59983;52.010;5.420;2023-08-20T05:34:42;9.00;;;6.93;;
72109;SDS011;59983;52.010;5.420;2023-08-20T05:37:09;7.43;;;6.88;;
72109;SDS011;59983;52.010;5.420;2023-08-20T05:39:36;6.83;;;6.03;;
72109;SDS011;59983;52.010;5.420;2023-08-20T05:42:04;6.65;;;6.20;;
72109;SDS011;59983;52.010;5.420;2023-08-20T05:44:31;9.90;;;7.10;;
72109;SDS011;59983;52.010;5.420;2023-08-20T05:46:58;9.38;;;7.45;;
72109;SDS011;59983;52.010;5.420;2023-08-20T05:49:25;7.00;;;6.40;;
72109;SDS011;59983;52.010;5.420;2023-08-20T05:51:54;7.63;;;7.13;;
72109;SDS011;59983;52.010;5.420;2023-08-20T05:54:21;7.28;;;6.45;;
72109;SDS011;59983;52.010;5.420;2023-08-20T05:56:47;6.43;;;5.90;;
72109;SDS011;59983;52.010;5.420;2023-08-20T05:59:14;7.82;;;6.68;;
72109;SDS011;59983;52.010;5.420;2023-08-20T06:01:40;7.63;;;7.03;;
72109;SDS011;59983;52.010;5.420;2023-08-20T06:04:07;11.20;;;7.00;;
72109;SDS011;59983;52.010;5.420;2023-08-20T06:06:33;7.72;;;6.40;;
72109;SDS011;59983;52.010;5.420;2023-08-20T06:09:00;6.30;;;5.75;;
72109;SDS011;59983;52.010;5.420;2023-08-20T06:11:34;6.65;;;6.05;;
72109;SDS011;59983;52.010;5.420;2023-08-20T06:14:01;8.13;;;6.25;;
72109;SDS011;59983;52.010;5.420;2023-08-20T06:16:27;10.40;;;6.63;;
72109;SDS011;59983;52.010;5.420;2023-08-20T06:18:54;13.88;;;7.32;;
72109;SDS011;59983;52.010;5.420;2023-08-20T06:21:22;7.10;;;6.40;;
72109;SDS011;59983;52.010;5.420;2023-08-20T06:23:48;9.77;;;5.90;;
72109;SDS011;59983;52.010;5.420;2023-08-20T06:26:15;10.57;;;6.55;;
72109;SDS011;59983;52.010;5.420;2023-08-20T06:28:41;10.60;;;6.73;;
72109;SDS011;59983;52.010;5.420;2023-08-20T06:31:08;8.43;;;6.00;;
72109;SDS011;59983;52.010;5.420;2023-08-20T06:33:35;9.93;;;5.80;;
72109;SDS011;59983;52.010;5.420;2023-08-20T06:36:01;8.80;;;6.25;;
72109;SDS011;59983;52.010;5.420;2023-08-20T06:38:28;8.32;;;6.30;;
72109;SDS011;59983;52.010;5.420;2023-08-20T06:40:55;10.60;;;5.87;;
72109;SDS011;59983;52.010;5.420;2023-08-20T06:43:22;9.55;;;5.97;;
72109;SDS011;59983;52.010;5.420;2023-08-20T06:45:48;12.73;;;5.80;;
72109;SDS011;59983;52.010;5.420;2023-08-20T06:48:15;8.07;;;5.53;;
72109;SDS011;59983;52.010;5.420;2023-08-20T06:50:42;14.15;;;5.78;;
72109;SDS011;59983;52.010;5.420;2023-08-20T06:53:09;13.47;;;5.13;;
72109;SDS011;59983;52.010;5.420;2023-08-20T06:55:36;11.13;;;5.28;;
72109;SDS011;59983;52.010;5.420;2023-08-20T06:58:02;12.00;;;4.63;;
72109;SDS011;59983;52.010;5.420;2023-08-20T07:00:29;8.93;;;4.28;;
72109;SDS011;59983;52.010;5.420;2023-08-20T07:02:56;5.75;;;3.97;;
72109;SDS011;59983;52.010;5.420;2023-08-20T07:05:22;9.43;;;4.80;;
72109;SDS011;59983;52.010;5.420;2023-08-20T07:07:49;8.80;;;4.35;;
72109;SDS011;59983;52.010;5.420;2023-08-20T07:10:15;9.93;;;4.82;;
72109;SDS011;59983;52.010;5.420;2023-08-20T07:12:42;12.25;;;4.47;;
72109;SDS011;59983;52.010;5.420;2023-08-20T07:15:08;8.05;;;3.85;;
72109;SDS011;59983;52.010;5.420;2023-08-20T07:17:35;12.93;;;3.23;;
72109;SDS011;59983;52.010;5.420;2023-08-20T07:20:02;8.48;;;3.25;;
72109;SDS011;59983;52.010;5.420;2023-08-20T07:22:29;3.83;;;2.85;;
72109;SDS011;59983;52.010;5.420;2023-08-20T07:24:56;6.32;;;4.47;;
72109;SDS011;59983;52.010;5.420;2023-08-20T07:27:22;7.15;;;4.38;;
72109;SDS011;59983;52.010;5.420;2023-08-20T07:29:49;6.10;;;3.90;;
72109;SDS011;59983;52.010;5.420;2023-08-20T07:32:15;10.77;;;4.30;;
72109;SDS011;59983;52.010;5.420;2023-08-20T07:34:42;9.00;;;3.65;;
72109;SDS011;59983;52.010;5.420;2023-08-20T07:37:08;9.18;;;2.85;;
72109;SDS011;59983;52.010;5.420;2023-08-20T07:39:35;6.93;;;3.83;;
72109;SDS011;59983;52.010;5.420;2023-08-20T07:42:01;12.73;;;3.67;;
72109;SDS011;59983;52.010;5.420;2023-08-20T07:44:29;8.05;;;3.35;;
72109;SDS011;59983;52.010;5.420;2023-08-20T07:46:55;10.82;;;3.85;;
72109;SDS011;59983;52.010;5.420;2023-08-20T07:49:22;13.05;;;3.42;;
72109;SDS011;59983;52.010;5.420;2023-08-20T07:51:49;7.03;;;4.00;;
72109;SDS011;59983;52.010;5.420;2023-08-20T07:54:18;6.20;;;3.43;;
72109;SDS011;59983;52.010;5.420;2023-08-20T07:56:45;6.95;;;3.05;;
72109;SDS011;59983;52.010;5.420;2023-08-20T07:59:11;12.48;;;3.95;;
72109;SDS011;59983;52.010;5.420;2023-08-20T08:01:38;6.60;;;3.08;;
72109;SDS011;59983;52.010;5.420;2023-08-20T08:04:04;7.40;;;2.50;;
72109;SDS011;59983;52.010;5.420;2023-08-20T08:06:31;9.13;;;2.57;;
72109;SDS011;59983;52.010;5.420;2023-08-20T08:09:14;8.85;;;2.67;;
72109;SDS011;59983;52.010;5.420;2023-08-20T08:11:44;6.45;;;2.53;;
72109;SDS011;59983;52.010;5.420;2023-08-20T08:14:10;7.93;;;2.50;;
72109;SDS011;59983;52.010;5.420;2023-08-20T08:16:38;6.50;;;2.55;;
72109;SDS011;59983;52.010;5.420;2023-08-20T08:19:05;8.70;;;2.83;;
72109;SDS011;59983;52.010;5.420;2023-08-20T08:21:31;5.05;;;2.65;;
72109;SDS011;59983;52.010;5.420;2023-08-20T08:23:58;5.47;;;2.42;;
72109;SDS011;59983;52.010;5.420;2023-08-20T08:26:24;6.28;;;2.53;;
72109;SDS011;59983;52.010;5.420;2023-08-20T08:28:51;8.32;;;2.58;;
72109;SDS011;59983;52.010;5.420;2023-08-20T08:31:17;7.73;;;2.27;;
72109;SDS011;59983;52.010;5.420;2023-08-20T08:33:44;8.35;;;2.53;;
72109;SDS011;59983;52.010;5.420;2023-08-20T08:36:10;8.40;;;2.40;;
72109;SDS011;59983;52.010;5.420;2023-08-20T08:38:37;5.35;;;2.63;;
72109;SDS011;59983;52.010;5.420;2023-08-20T08:41:04;7.45;;;2.50;;
72109;SDS011;59983;52.010;5.420;2023-08-20T08:43:37;5.23;;;1.97;;
72109;SDS011;59983;52.010;5.420;2023-08-20T08:46:06;6.78;;;3.05;;
72109;SDS011;59983;52.010;5.420;2023-08-20T08:48:34;5.10;;;2.10;;
72109;SDS011;59983;52.010;5.420;2023-08-20T08:51:01;3.97;;;2.15;;
72109;SDS011;59983;52.010;5.420;2023-08-20T08:53:28;7.85;;;2.97;;
72109;SDS011;59983;52.010;5.420;2023-08-20T08:55:58;4.33;;;2.10;;
72109;SDS011;59983;52.010;5.420;2023-08-20T08:58:26;4.95;;;2.00;;
72109;SDS011;59983;52.010;5.420;2023-08-20T09:00:52;8.57;;;2.15;;
72109;SDS011;59983;52.010;5.420;2023-08-20T09:03:19;4.68;;;1.48;;
72109;SDS011;59983;52.010;5.420;2023-08-20T09:05:46;6.07;;;1.35;;
72109;SDS011;59983;52.010;5.420;2023-08-20T09:08:25;8.00;;;1.77;;
72109;SDS011;59983;52.010;5.420;2023-08-20T09:10:54;4.18;;;1.75;;
72109;SDS011;59983;52.010;5.420;2023-08-20T09:13:25;4.25;;;1.90;;
72109;SDS011;59983;52.010;5.420;2023-08-20T09:15:59;6.22;;;1.70;;
72109;SDS011;59983;52.010;5.420;2023-08-20T09:18:30;4.70;;;1.73;;
72109;SDS011;59983;52.010;5.420;2023-08-20T09:20:57;2.73;;;1.67;;
72109;SDS011;59983;52.010;5.420;2023-08-20T09:23:26;3.80;;;1.67;;
72109;SDS011;59983;52.010;5.420;2023-08-20T09:25:55;8.23;;;1.90;;
72109;SDS011;59983;52.010;5.420;2023-08-20T09:28:22;4.07;;;1.75;;
72109;SDS011;59983;52.010;5.420;2023-08-20T09:30:58;5.10;;;1.63;;
72109;SDS011;59983;52.010;5.420;2023-08-20T09:33:29;4.97;;;2.43;;
72109;SDS011;59983;52.010;5.420;2023-08-20T09:35:56;10.60;;;1.88;;
72109;SDS011;59983;52.010;5.420;2023-08-20T09:38:23;2.95;;;1.15;;
72109;SDS011;59983;52.010;5.420;2023-08-20T09:40:51;4.25;;;1.50;;
72109;SDS011;59983;52.010;5.420;2023-08-20T09:43:23;2.50;;;1.35;;
72109;SDS011;59983;52.010;5.420;2023-08-20T09:45:54;5.43;;;1.60;;
72109;SDS011;59983;52.010;5.420;2023-08-20T09:48:23;2.55;;;1.48;;
72109;SDS011;59983;52.010;5.420;2023-08-20T09:50:53;3.10;;;1.30;;
72109;SDS011;59983;52.010;5.420;2023-08-20T09:53:30;3.83;;;1.73;;
72109;SDS011;59983;52.010;5.420;2023-08-20T09:56:03;3.30;;;1.30;;
72109;SDS011;59983;52.010;5.420;2023-08-20T09:58:41;3.03;;;1.20;;
72109;SDS011;59983;52.010;5.420;2023-08-20T10:01:08;4.50;;;1.00;;
72109;SDS011;59983;52.010;5.420;2023-08-20T10:03:35;6.82;;;1.75;;
72109;SDS011;59983;52.010;5.420;2023-08-20T10:06:03;2.25;;;1.15;;
72109;SDS011;59983;52.010;5.420;2023-08-20T10:08:30;4.22;;;1.70;;
72109;SDS011;59983;52.010;5.420;2023-08-20T10:10:57;3.80;;;1.47;;
72109;SDS011;59983;52.010;5.420;2023-08-20T10:13:23;3.47;;;1.13;;
72109;SDS011;59983;52.010;5.420;2023-08-20T10:15:50;1.80;;;1.48;;
72109;SDS011;59983;52.010;5.420;2023-08-20T10:18:21;5.55;;;1.60;;
72109;SDS011;59983;52.010;5.420;2023-08-20T10:20:51;7.32;;;1.60;;
72109;SDS011;59983;52.010;5.420;2023-08-20T10:23:21;4.70;;;1.27;;
72109;SDS011;59983;52.010;5.420;2023-08-20T10:25:54;1.35;;;0.73;;
72109;SDS011;59983;52.010;5.420;2023-08-20T10:28:32;3.85;;;1.23;;
72109;SDS011;59983;52.010;5.420;2023-08-20T10:31:05;3.50;;;1.30;;
72109;SDS011;59983;52.010;5.420;2023-08-20T10:33:38;3.15;;;1.23;;
72109;SDS011;59983;52.010;5.420;2023-08-20T10:36:26;4.40;;;1.07;;
72109;SDS011;59983;52.010;5.420;2023-08-20T10:38:55;6.40;;;2.42;;
72109;SDS011;59983;52.010;5.420;2023-08-20T10:41:27;2.08;;;1.30;;
72109;SDS011;59983;52.010;5.420;2023-08-20T10:43:57;2.72;;;1.75;;
72109;SDS011;59983;52.010;5.420;2023-08-20T10:46:27;3.50;;;1.58;;
72109;SDS011;59983;52.010;5.420;2023-08-20T10:48:57;2.40;;;0.90;;
72109;SDS011;59983;52.010;5.420;2023-08-20T10:56:45;2.35;;;1.08;;
72109;SDS011;59983;52.010;5.420;2023-08-20T11:01:46;2.87;;;1.30;;
72109;SDS011;59983;52.010;5.420;2023-08-20T11:04:14;5.53;;;1.73;;
72109;SDS011;59983;52.010;5.420;2023-08-20T11:06:42;3.47;;;1.30;;
72109;SDS011;59983;52.010;5.420;2023-08-20T11:09:10;4.40;;;1.30;;
72109;SDS011;59983;52.010;5.420;2023-08-20T11:11:42;2.22;;;0.90;;
72109;SDS011;59983;52.010;5.420;2023-08-20T11:14:12;2.77;;;1.10;;
72109;SDS011;59983;52.010;5.420;2023-08-20T11:16:43;2.75;;;0.95;;
72109;SDS011;59983;52.010;5.420;2023-08-20T11:19:10;4.03;;;1.45;;
72109;SDS011;59983;52.010;5.420;2023-08-20T11:21:37;2.75;;;1.23;;
72109;SDS011;59983;52.010;5.420;2023-08-20T11:24:05;4.88;;;1.30;;
72109;SDS011;59983;52.010;5.420;2023-08-20T11:26:33;3.97;;;1.23;;
72109;SDS011;59983;52.010;5.420;2023-08-20T11:29:07;4.75;;;1.30;;
72109;SDS011;59983;52.010;5.420;2023-08-20T11:31:38;2.72;;;1.17;;
72109;SDS011;59983;52.010;5.420;2023-08-20T11:34:06;4.60;;;1.30;;
72109;SDS011;59983;52.010;5.420;2023-08-20T11:36:34;1.63;;;1.00;;
72109;SDS011;59983;52.010;5.420;2023-08-20T11:39:01;3.10;;;1.40;;
72109;SDS011;59983;52.010;5.420;2023-08-20T11:41:28;3.30;;;1.52;;
72109;SDS011;59983;52.010;5.420;2023-08-20T11:43:55;2.63;;;1.55;;
72109;SDS011;59983;52.010;5.420;2023-08-20T11:46:22;3.33;;;1.30;;
72109;SDS011;59983;52.010;5.420;2023-08-20T11:49:02;4.85;;;2.40;;
72109;SDS011;59983;52.010;5.420;2023-08-20T11:54:09;2.00;;;1.17;;
72109;SDS011;59983;52.010;5.420;2023-08-20T11:56:43;2.47;;;1.17;;
72109;SDS011;59983;52.010;5.420;2023-08-20T11:59:12;6.57;;;1.58;;
72109;SDS011;59983;52.010;5.420;2023-08-20T12:01:40;3.88;;;1.10;;
72109;SDS011;59983;52.010;5.420;2023-08-20T12:04:08;4.43;;;1.00;;
72109;SDS011;59983;52.010;5.420;2023-08-20T12:06:36;4.82;;;1.30;;
72109;SDS011;59983;52.010;5.420;2023-08-20T12:09:18;3.38;;;1.20;;
72109;SDS011;59983;52.010;5.420;2023-08-20T12:11:52;2.97;;;1.00;;
72109;SDS011;59983;52.010;5.420;2023-08-20T12:14:22;5.85;;;1.10;;
72109;SDS011;59983;52.010;5.420;2023-08-20T12:16:48;2.17;;;1.20;;
72109;SDS011;59983;52.010;5.420;2023-08-20T12:19:17;2.65;;;1.00;;
72109;SDS011;59983;52.010;5.420;2023-08-20T12:21:44;3.00;;;1.50;;
72109;SDS011;59983;52.010;5.420;2023-08-20T12:24:11;1.88;;;0.95;;
72109;SDS011;59983;52.010;5.420;2023-08-20T12:26:38;2.75;;;1.05;;
72109;SDS011;59983;52.010;5.420;2023-08-20T12:29:06;3.37;;;1.10;;
72109;SDS011;59983;52.010;5.420;2023-08-20T12:31:33;3.60;;;1.42;;
72109;SDS011;59983;52.010;5.420;2023-08-20T12:34:00;2.85;;;0.90;;
72109;SDS011;59983;52.010;5.420;2023-08-20T12:36:27;2.75;;;0.85;;
72109;SDS011;59983;52.010;5.420;2023-08-20T12:38:54;3.95;;;1.27;;
72109;SDS011;59983;52.010;5.420;2023-08-20T12:41:22;4.37;;;0.93;;
72109;SDS011;59983;52.010;5.420;2023-08-20T12:43:49;2.33;;;1.20;;
72109;SDS011;59983;52.010;5.420;2023-08-20T12:46:16;4.47;;;1.08;;
72109;SDS011;59983;52.010;5.420;2023-08-20T12:48:43;3.65;;;1.10;;
72109;SDS011;59983;52.010;5.420;2023-08-20T12:51:09;4.00;;;1.00;;
72109;SDS011;59983;52.010;5.420;2023-08-20T12:53:39;6.10;;;1.00;;
72109;SDS011;59983;52.010;5.420;2023-08-20T12:56:06;5.40;;;1.17;;
72109;SDS011;59983;52.010;5.420;2023-08-20T12:58:32;5.88;;;1.08;;
72109;SDS011;59983;52.010;5.420;2023-08-20T13:00:59;2.60;;;1.17;;
72109;SDS011;59983;52.010;5.420;2023-08-20T13:03:26;2.28;;;0.70;;
72109;SDS011;59983;52.010;5.420;2023-08-20T13:05:54;3.53;;;0.80;;
72109;SDS011;59983;52.010;5.420;2023-08-20T13:08:25;3.25;;;1.10;;
72109;SDS011;59983;52.010;5.420;2023-08-20T13:10:55;3.45;;;1.00;;
72109;SDS011;59983;52.010;5.420;2023-08-20T13:13:23;4.65;;;0.80;;
72109;SDS011;59983;52.010;5.420;2023-08-20T13:15:51;4.00;;;0.98;;
72109;SDS011;59983;52.010;5.420;2023-08-20T13:18:18;2.53;;;0.70;;
72109;SDS011;59983;52.010;5.420;2023-08-20T13:20:45;1.75;;;0.50;;
72109;SDS011;59983;52.010;5.420;2023-08-20T13:23:12;2.00;;;0.60;;
72109;SDS011;59983;52.010;5.420;2023-08-20T13:25:39;2.03;;;0.95;;
72109;SDS011;59983;52.010;5.420;2023-08-20T13:28:05;2.92;;;0.70;;
72109;SDS011;59983;52.010;5.420;2023-08-20T13:30:32;2.00;;;0.77;;
72109;SDS011;59983;52.010;5.420;2023-08-20T13:33:00;2.28;;;1.00;;
72109;SDS011;59983;52.010;5.420;2023-08-20T13:35:27;2.92;;;1.08;;
72109;SDS011;59983;52.010;5.420;2023-08-20T13:37:54;5.70;;;1.40;;
72109;SDS011;59983;52.010;5.420;2023-08-20T13:40:20;3.05;;;0.90;;
72109;SDS011;59983;52.010;5.420;2023-08-20T13:42:47;2.40;;;0.70;;
72109;SDS011;59983;52.010;5.420;2023-08-20T13:45:13;3.25;;;0.75;;
72109;SDS011;59983;52.010;5.420;2023-08-20T13:47:40;3.70;;;0.93;;
72109;SDS011;59983;52.010;5.420;2023-08-20T13:50:07;2.85;;;1.08;;
72109;SDS011;59983;52.010;5.420;2023-08-20T13:52:34;5.65;;;1.02;;
72109;SDS011;59983;52.010;5.420;2023-08-20T13:55:01;3.20;;;1.10;;
72109;SDS011;59983;52.010;5.420;2023-08-20T13:57:27;2.70;;;0.73;;
72109;SDS011;59983;52.010;5.420;2023-08-20T13:59:54;2.78;;;0.70;;
72109;SDS011;59983;52.010;5.420;2023-08-20T14:02:20;2.60;;;0.93;;
72109;SDS011;59983;52.010;5.420;2023-08-20T14:04:48;2.38;;;0.88;;
72109;SDS011;59983;52.010;5.420;2023-08-20T14:07:14;4.57;;;1.03;;
72109;SDS011;59983;52.010;5.420;2023-08-20T14:09:41;2.42;;;1.17;;
72109;SDS011;59983;52.010;5.420;2023-08-20T14:12:07;3.53;;;0.90;;
72109;SDS011;59983;52.010;5.420;2023-08-20T14:14:34;2.60;;;1.00;;
72109;SDS011;59983;52.010;5.420;2023-08-20T14:17:01;4.95;;;1.00;;
72109;SDS011;59983;52.010;5.420;2023-08-20T14:19:29;3.50;;;0.90;;
72109;SDS011;59983;52.010;5.420;2023-08-20T14:21:55;2.60;;;1.00;;
72109;SDS011;59983;52.010;5.420;2023-08-20T14:24:22;6.18;;;1.20;;
72109;SDS011;59983;52.010;5.420;2023-08-20T14:26:48;2.22;;;0.88;;
72109;SDS011;59983;52.010;5.420;2023-08-20T14:29:15;3.30;;;0.90;;
72109;SDS011;59983;52.010;5.420;2023-08-20T14:31:41;5.80;;;1.17;;
72109;SDS011;59983;52.010;5.420;2023-08-20T14:34:08;4.40;;;1.40;;
72109;SDS011;59983;52.010;5.420;2023-08-20T14:36:35;4.70;;;1.20;;
72109;SDS011;59983;52.010;5.420;2023-08-20T14:39:01;4.75;;;0.90;;
72109;SDS011;59983;52.010;5.420;2023-08-20T14:41:29;6.25;;;1.10;;
72109;SDS011;59983;52.010;5.420;2023-08-20T14:43:56;5.67;;;1.33;;
72109;SDS011;59983;52.010;5.420;2023-08-20T14:46:22;3.90;;;1.95;;
72109;SDS011;59983;52.010;5.420;2023-08-20T14:48:49;4.82;;;1.35;;
72109;SDS011;59983;52.010;5.420;2023-08-20T14:51:15;4.57;;;1.27;;
72109;SDS011;59983;52.010;5.420;2023-08-20T14:53:42;2.17;;;0.98;;
72109;SDS011;59983;52.010;5.420;2023-08-20T14:56:08;4.13;;;1.20;;
72109;SDS011;59983;52.010;5.420;2023-08-20T14:58:35;3.17;;;1.17;;
72109;SDS011;59983;52.010;5.420;2023-08-20T15:01:01;2.95;;;1.45;;
72109;SDS011;59983;52.010;5.420;2023-08-20T15:03:29;3.00;;;1.17;;
72109;SDS011;59983;52.010;5.420;2023-08-20T15:05:56;3.08;;;1.05;;
72109;SDS011;59983;52.010;5.420;2023-08-20T15:08:23;2.00;;;0.93;;